Time;durP1;ratioP1;P1;durP2;ratioP2;P2;SDS_P1;SDS_P2;PMS_P1;PMS_P2;Temp;Humidity;BMP_temperature;BMP_pressure;BME280_temperature;BME280_humidity;BME280_pressure;Samples;Min_cycle;Max_cycle;Signal;HPM_P1;HPM_P2
2022/12/06 00:01:06;;;;;;;32.60;21.43;;;1.50;1.00;;;;;;5051338;28;21195;-63
2022/12/06 00:03:34;;;;;;;34.47;21.47;;;1.50;1.00;;;;;;5032052;28;20230;-63
2022/12/06 00:06:10;;;;;;;36.07;22.97;;;1.50;1.00;;;;;;5046811;28;20280;-64
2022/12/06 00:08:38;;;;;;;32.07;19.60;;;1.50;1.00;;;;;;5031099;28;20215;-62
2022/12/06 00:11:08;;;;;;;39.03;20.53;;;1.60;1.00;;;;;;5037345;28;20203;-63
2022/12/06 00:13:36;;;;;;;35.80;19.93;;;1.50;1.00;;;;;;5055058;28;20195;-64
2022/12/06 00:16:06;;;;;;;45.03;26.67;;;1.50;1.00;;;;;;5038068;28;20207;-63
2022/12/06 00:18:35;;;;;;;37.43;21.43;;;1.50;1.00;;;;;;5039353;28;20199;-64
2022/12/06 00:21:10;;;;;;;46.57;29.40;;;1.50;1.00;;;;;;5038214;28;20202;-62
2022/12/06 00:23:43;;;;;;;47.27;25.03;;;1.50;1.00;;;;;;5037761;28;20196;-62
2022/12/06 00:26:10;;;;;;;39.37;23.17;;;1.50;1.00;;;;;;5040424;28;20194;-61
2022/12/06 00:28:38;;;;;;;43.50;25.63;;;1.50;1.00;;;;;;5048204;28;20241;-64
2022/12/06 00:31:09;;;;;;;56.80;28.20;;;1.50;1.00;;;;;;5036017;28;20192;-62
2022/12/06 00:33:36;;;;;;;49.83;27.17;;;1.50;1.00;;;;;;5037542;28;20204;-62
2022/12/06 00:36:12;;;;;;;63.27;35.57;;;1.50;1.00;;;;;;5038548;28;20275;-63
2022/12/06 00:38:39;;;;;;;53.40;30.37;;;1.50;1.00;;;;;;5045504;28;20319;-65
2022/12/06 00:41:09;;;;;;;39.20;22.80;;;1.50;1.00;;;;;;5029976;28;20590;-63
2022/12/06 00:43:37;;;;;;;60.63;33.67;;;1.50;1.00;;;;;;5038415;28;20656;-62
2022/12/06 00:46:06;;;;;;;47.77;26.60;;;1.50;1.00;;;;;;5051860;28;20196;-63
2022/12/06 00:48:34;;;;;;;44.80;24.50;;;1.50;1.00;;;;;;5054414;28;20195;-64
2022/12/06 00:51:01;;;;;;;45.13;24.70;;;1.50;1.00;;;;;;5036929;28;20218;-64
2022/12/06 00:53:28;;;;;;;44.47;23.53;;;1.50;1.00;;;;;;5044963;28;20298;-63
2022/12/06 00:55:56;;;;;;;46.53;24.90;;;1.60;1.00;;;;;;5045232;28;20204;-64
2022/12/06 00:58:23;;;;;;;52.43;24.33;;;1.60;1.00;;;;;;5054233;28;20241;-68
2022/12/06 01:00:50;;;;;;;50.23;24.93;;;1.60;1.00;;;;;;5030066;28;20289;-62
2022/12/06 01:03:17;;;;;;;48.40;25.13;;;1.60;1.00;;;;;;5035788;28;20224;-63
2022/12/06 01:05:47;;;;;;;50.63;24.83;;;1.60;1.00;;;;;;5044860;28;20321;-62
2022/12/06 01:08:16;;;;;;;50.20;24.13;;;1.60;1.00;;;;;;5038442;28;20725;-62
2022/12/06 01:10:52;;;;;;;60.90;25.73;;;1.60;1.00;;;;;;5042104;28;20188;-64
2022/12/06 01:13:19;;;;;;;49.17;27.00;;;1.60;1.00;;;;;;5053114;28;20679;-62
2022/12/06 01:15:46;;;;;;;49.60;25.87;;;1.70;1.00;;;;;;5022053;28;20200;-62
2022/12/06 01:18:13;;;;;;;46.50;25.07;;;1.60;9.50;;;;;;5054391;28;20212;-62
2022/12/06 01:20:40;;;;;;;55.10;26.13;;;1.70;29.90;;;;;;5036896;28;20362;-61
2022/12/06 01:23:07;;;;;;;49.00;25.87;;;1.70;35.60;;;;;;5037007;28;20223;-62
2022/12/06 01:25:34;;;;;;;49.13;24.93;;;1.70;84.90;;;;;;5033127;28;20226;-62
2022/12/06 01:28:02;;;;;;;48.03;25.10;;;1.70;91.80;;;;;;5033773;28;20203;-61
2022/12/06 01:30:29;;;;;;;45.30;23.20;;;1.60;54.60;;;;;;5038357;28;20194;-62
2022/12/06 01:32:57;;;;;;;57.50;25.10;;;1.60;62.40;;;;;;5054327;28;20645;-62
2022/12/06 01:35:23;;;;;;;50.03;25.00;;;1.60;86.30;;;;;;5038150;28;20720;-68
2022/12/06 01:37:50;;;;;;;48.60;24.23;;;1.60;99.90;;;;;;5053461;28;20204;-62
2022/12/06 01:40:17;;;;;;;46.83;23.77;;;1.70;99.90;;;;;;5037342;28;20200;-61
2022/12/06 01:42:44;;;;;;;47.70;25.00;;;1.70;99.90;;;;;;5031502;28;20401;-60
2022/12/06 01:45:11;;;;;;;52.43;25.40;;;1.60;99.90;;;;;;5040000;28;20666;-61
2022/12/06 01:47:41;;;;;;;47.47;23.03;;;1.70;99.90;;;;;;5046908;28;20188;-62
2022/12/06 01:50:20;;;;;;;45.87;23.93;;;1.70;99.90;;;;;;5043304;28;20271;-63
2022/12/06 01:52:55;;;;;;;47.70;24.00;;;1.70;99.90;;;;;;5045686;28;20815;-62
2022/12/06 01:55:26;;;;;;;51.67;25.10;;;1.70;99.90;;;;;;5036760;28;20249;-62
2022/12/06 01:57:58;;;;;;;47.77;23.80;;;1.70;99.90;;;;;;5037860;28;20193;-63
2022/12/06 02:00:25;;;;;;;50.90;23.90;;;1.70;99.90;;;;;;5038685;28;20312;-62
2022/12/06 02:02:56;;;;;;;47.60;24.70;;;1.80;99.90;;;;;;5044440;28;20577;-62
2022/12/06 02:05:24;;;;;;;43.97;23.43;;;1.80;99.90;;;;;;5041771;28;20766;-63
2022/12/06 02:07:51;;;;;;;41.37;23.37;;;1.70;99.90;;;;;;5058947;28;20237;-63
2022/12/06 02:10:19;;;;;;;56.43;28.93;;;1.70;99.90;;;;;;5057981;28;20215;-64
2022/12/06 02:12:51;;;;;;;63.27;31.23;;;1.80;99.90;;;;;;5047148;28;20203;-63
2022/12/06 02:15:21;;;;;;;43.60;26.33;;;1.80;99.90;;;;;;5051151;28;20190;-64
2022/12/06 02:17:56;;;;;;;47.33;24.40;;;1.80;99.90;;;;;;5044563;28;20225;-64
2022/12/06 02:20:31;;;;;;;46.97;24.03;;;1.80;99.90;;;;;;5059192;28;20194;-63
2022/12/06 02:23:25;;;;;;;48.37;23.40;;;1.80;99.90;;;;;;5052367;28;20763;-63
2022/12/06 02:26:32;;;;;;;40.87;23.03;;;1.80;99.90;;;;;;5044561;28;20262;-64
2022/12/06 02:29:23;;;;;;;40.23;23.10;;;1.80;99.90;;;;;;5034158;28;20263;-63
2022/12/06 02:31:50;;;;;;;39.73;23.60;;;1.80;99.90;;;;;;5060995;28;20245;-63
2022/12/06 02:34:29;;;;;;;39.50;22.03;;;1.80;99.90;;;;;;5044402;28;20261;-64
2022/12/06 02:37:22;;;;;;;35.37;21.13;;;1.80;99.90;;;;;;5061206;28;20206;-63
2022/12/06 02:40:05;;;;;;;42.03;21.77;;;1.80;99.90;;;;;;5043807;28;20207;-62
2022/12/06 02:43:02;;;;;;;40.90;24.07;;;1.80;99.90;;;;;;5059145;28;20709;-63
2022/12/06 02:45:34;;;;;;;40.57;23.97;;;1.80;99.90;;;;;;5043256;28;20290;-62
2022/12/06 02:48:03;;;;;;;43.63;24.33;;;1.80;99.90;;;;;;5061723;28;20206;-63
2022/12/06 02:50:41;;;;;;;44.07;23.30;;;1.80;99.90;;;;;;5058718;28;20199;-63
2022/12/06 02:53:12;;;;;;;44.20;22.70;;;1.70;99.90;;;;;;5052220;28;20289;-62
2022/12/06 02:55:43;;;;;;;43.37;22.57;;;1.70;99.90;;;;;;5051229;28;20203;-64
2022/12/06 02:58:10;;;;;;;41.00;23.23;;;1.80;99.90;;;;;;5059825;28;20241;-61
2022/12/06 03:00:41;;;;;;;38.87;23.77;;;1.70;99.90;;;;;;5058767;28;20845;-63
2022/12/06 03:03:29;;;;;;;41.27;22.13;;;1.70;99.90;;;;;;5055358;28;20260;-65
2022/12/06 03:05:59;;;;;;;40.50;22.33;;;1.70;99.90;;;;;;5038833;28;20290;-63
2022/12/06 03:08:48;;;;;;;36.33;22.10;;;1.70;99.90;;;;;;5041565;28;20234;-63
2022/12/06 03:11:16;;;;;;;35.93;21.20;;;1.70;34.80;;;;;;5059057;28;20188;-63
2022/12/06 03:13:50;;;;;;;41.73;23.50;;;1.70;58.30;;;;;;5033829;28;20289;-62
2022/12/06 03:16:34;;;;;;;36.40;22.07;;;1.70;38.10;;;;;;5061022;28;20194;-64
2022/12/06 03:19:11;;;;;;;33.27;21.20;;;1.70;99.90;;;;;;5026648;28;20199;-62
2022/12/06 03:21:43;;;;;;;39.23;22.20;;;1.70;99.90;;;;;;5051598;28;20253;-63
2022/12/06 03:24:13;;;;;;;34.57;21.30;;;1.70;99.90;;;;;;5043461;28;20264;-63
2022/12/06 03:26:44;;;;;;;40.10;23.30;;;1.70;99.90;;;;;;5059708;28;20634;-63
2022/12/06 03:29:15;;;;;;;35.00;21.43;;;1.80;99.90;;;;;;5044350;28;20299;-68
2022/12/06 03:31:43;;;;;;;37.83;22.23;;;1.80;99.90;;;;;;5040639;28;20419;-69
2022/12/06 03:34:21;;;;;;;34.03;20.47;;;1.80;99.90;;;;;;5058486;28;20207;-68
2022/12/06 03:36:51;;;;;;;32.30;20.73;;;1.80;99.90;;;;;;5043127;28;20219;-68
2022/12/06 03:39:29;;;;;;;35.67;20.20;;;1.80;99.90;;;;;;5055357;28;20594;-64
2022/12/06 03:41:58;;;;;;;31.33;19.23;;;1.80;99.90;;;;;;5058057;28;20617;-63
2022/12/06 03:44:25;;;;;;;30.43;20.43;;;1.80;99.90;;;;;;5061793;28;20286;-63
2022/12/06 03:47:00;;;;;;;31.83;20.67;;;1.90;99.90;;;;;;5061231;28;20184;-64
2022/12/06 03:49:53;;;;;;;35.97;20.97;;;1.80;99.90;;;;;;5028076;28;20198;-63
2022/12/06 03:52:22;;;;;;;31.60;20.23;;;1.90;99.90;;;;;;5057646;28;20662;-63
2022/12/06 03:54:50;;;;;;;39.37;24.03;;;1.80;99.90;;;;;;5056768;28;20266;-70
2022/12/06 03:57:17;;;;;;;34.10;22.87;;;1.80;99.90;;;;;;5058986;28;20198;-67
2022/12/06 03:59:45;;;;;;;39.00;23.90;;;1.80;99.90;;;;;;5059736;28;20187;-63
2022/12/06 04:02:12;;;;;;;45.10;26.97;;;1.80;99.90;;;;;;5060265;28;20208;-63
2022/12/06 04:04:40;;;;;;;35.67;25.50;;;1.90;99.90;;;;;;5042043;28;20212;-64
2022/12/06 04:07:09;;;;;;;32.03;22.00;;;1.80;93.90;;;;;;5041458;28;20288;-67
2022/12/06 04:09:51;;;;;;;31.10;20.33;;;1.80;25.70;;;;;;5057498;28;20195;-63
2022/12/06 04:15:05;;;;;;;25.67;16.40;;;1.80;34.30;;;;;;5058168;28;20203;-67
2022/12/06 04:20:18;;;;;;;38.47;20.10;;;1.70;62.70;;;;;;5059446;28;20219;-63
2022/12/06 04:23:03;;;;;;;36.57;18.33;;;1.70;56.70;;;;;;5059093;28;20446;-63
2022/12/06 04:25:35;;;;;;;38.17;18.60;;;1.70;99.90;;;;;;5050671;28;20892;-62
2022/12/06 04:39:05;;;;;;;40.83;17.17;;;1.70;99.90;;;;;;5054651;28;20689;-62
2022/12/06 04:44:17;;;;;;;32.33;17.77;;;1.70;1.00;;;;;;5056752;28;20194;-64
2022/12/06 04:46:44;;;;;;;39.37;16.57;;;1.80;1.00;;;;;;5058390;28;20565;-63
2022/12/06 04:49:11;;;;;;;32.27;17.90;;;1.80;1.00;;;;;;5057554;28;20203;-63
2022/12/06 04:51:38;;;;;;;23.53;15.33;;;1.80;1.00;;;;;;5056676;28;20191;-65
2022/12/06 04:54:06;;;;;;;41.50;17.33;;;1.90;1.00;;;;;;5049083;28;20932;-63
2022/12/06 04:56:33;;;;;;;31.47;17.47;;;1.90;1.00;;;;;;5040381;28;20195;-63
2022/12/06 04:59:01;;;;;;;28.50;16.67;;;1.90;1.00;;;;;;5057287;28;21163;-63
2022/12/06 05:01:28;;;;;;;32.60;16.77;;;1.90;1.00;;;;;;5042657;28;20199;-62
2022/12/06 05:03:57;;;;;;;39.73;17.30;;;1.90;1.00;;;;;;5058177;28;20736;-64
2022/12/06 05:06:24;;;;;;;37.13;16.90;;;1.90;1.00;;;;;;5032597;28;20234;-63
2022/12/06 05:08:51;;;;;;;48.60;17.50;;;1.90;1.00;;;;;;5047849;28;20569;-64
2022/12/06 05:11:18;;;;;;;38.20;16.73;;;1.90;1.00;;;;;;5046097;28;20205;-62
2022/12/06 05:13:45;;;;;;;42.80;17.10;;;1.90;1.00;;;;;;5049767;28;20201;-63
2022/12/06 05:16:12;;;;;;;35.30;17.30;;;1.90;1.00;;;;;;5059488;28;20201;-62
2022/12/06 05:18:39;;;;;;;40.33;18.43;;;1.90;1.00;;;;;;5059428;28;20218;-62
2022/12/06 05:21:10;;;;;;;36.40;17.97;;;1.90;1.00;;;;;;5062219;28;20662;-63
2022/12/06 05:23:37;;;;;;;35.40;18.07;;;1.90;99.90;;;;;;5058641;28;20290;-63
2022/12/06 05:26:07;;;;;;;41.67;18.17;;;1.90;99.90;;;;;;5044020;28;20193;-64
2022/12/06 05:28:34;;;;;;;34.60;17.33;;;1.90;99.90;;;;;;5042530;28;20198;-63
2022/12/06 05:31:01;;;;;;;44.60;19.53;;;1.90;99.90;;;;;;5048341;28;20190;-64
2022/12/06 05:33:28;;;;;;;42.57;19.43;;;1.90;99.90;;;;;;5057043;28;20200;-69
2022/12/06 05:35:55;;;;;;;40.43;19.33;;;1.90;99.90;;;;;;5043179;28;20837;-64
2022/12/06 05:38:23;;;;;;;41.97;18.67;;;1.90;99.90;;;;;;5040464;28;20227;-69
2022/12/06 05:40:50;;;;;;;38.70;20.87;;;1.90;99.90;;;;;;5039383;28;20278;-65
2022/12/06 05:43:17;;;;;;;47.80;20.87;;;1.90;99.90;;;;;;5039953;28;20314;-64
2022/12/06 05:45:44;;;;;;;41.67;20.37;;;1.90;99.90;;;;;;5058448;28;20191;-64
2022/12/06 05:48:11;;;;;;;42.17;19.87;;;1.90;99.90;;;;;;5058036;28;20196;-64
2022/12/06 05:50:38;;;;;;;48.70;22.97;;;1.90;99.90;;;;;;5043788;28;20211;-63
2022/12/06 05:53:05;;;;;;;61.57;29.33;;;2.00;99.90;;;;;;5052625;28;20245;-64
2022/12/06 05:55:32;;;;;;;55.93;25.33;;;2.00;1.00;;;;;;5059960;28;20195;-63
2022/12/06 05:57:59;;;;;;;56.03;22.57;;;2.00;1.00;;;;;;5061310;28;20192;-63
2022/12/06 06:00:26;;;;;;;59.70;21.23;;;2.00;1.00;;;;;;5035512;28;20632;-63
2022/12/06 06:02:53;;;;;;;45.80;21.67;;;2.00;1.00;;;;;;5051912;28;20634;-64
2022/12/06 06:05:20;;;;;;;49.93;23.13;;;2.00;1.00;;;;;;5061065;28;20219;-64
2022/12/06 06:07:47;;;;;;;68.73;27.03;;;2.00;1.00;;;;;;5050460;28;20199;-64
2022/12/06 06:10:15;;;;;;;54.27;25.47;;;2.00;1.00;;;;;;5059466;28;20200;-64
2022/12/06 06:12:43;;;;;;;58.87;30.47;;;2.00;1.00;;;;;;5053152;28;20207;-63
2022/12/06 06:15:14;;;;;;;50.10;26.00;;;2.00;1.00;;;;;;5061914;28;20199;-65
2022/12/06 06:17:42;;;;;;;47.40;24.07;;;2.00;1.00;;;;;;5042799;28;20199;-63
2022/12/06 06:20:12;;;;;;;44.70;23.43;;;2.10;1.00;;;;;;5051797;28;20286;-63
2022/12/06 06:22:40;;;;;;;44.33;21.87;;;2.10;1.00;;;;;;5042894;28;20314;-63
2022/12/06 06:25:08;;;;;;;60.47;24.07;;;2.10;1.00;;;;;;5043498;28;20732;-64
2022/12/06 06:27:36;;;;;;;45.10;22.90;;;2.10;1.00;;;;;;5043676;28;20736;-64
2022/12/06 06:30:06;;;;;;;46.13;21.27;;;2.10;1.00;;;;;;5051143;28;20286;-64
2022/12/06 06:32:33;;;;;;;43.07;21.00;;;2.10;1.00;;;;;;5059871;28;20261;-67
2022/12/06 06:35:01;;;;;;;48.40;22.17;;;2.10;1.00;;;;;;5062105;28;20212;-62
2022/12/06 06:37:28;;;;;;;41.60;21.37;;;2.10;1.00;;;;;;5060998;28;20241;-62
2022/12/06 06:39:55;;;;;;;39.13;21.87;;;2.10;1.00;;;;;;5042148;28;20224;-61
2022/12/06 06:42:22;;;;;;;42.67;21.23;;;2.10;1.00;;;;;;5061258;28;20226;-63
2022/12/06 06:44:49;;;;;;;47.20;21.87;;;2.10;1.00;;;;;;5059055;28;20211;-61
2022/12/06 06:47:16;;;;;;;42.23;22.90;;;2.10;1.00;;;;;;5057397;28;20203;-62
2022/12/06 06:49:43;;;;;;;38.43;21.80;;;2.10;1.00;;;;;;5050531;28;20328;-63
2022/12/06 06:52:09;;;;;;;38.37;22.37;;;2.10;1.00;;;;;;5061382;28;20666;-63
2022/12/06 06:54:36;;;;;;;53.20;22.20;;;2.20;1.00;;;;;;5059167;28;20203;-63
2022/12/06 06:57:03;;;;;;;48.13;22.33;;;2.20;1.00;;;;;;5060426;28;20206;-62
2022/12/06 06:59:30;;;;;;;39.03;19.97;;;2.20;1.00;;;;;;5056747;28;20261;-63
2022/12/06 07:01:57;;;;;;;49.20;21.57;;;2.20;1.00;;;;;;5057246;28;20205;-62
2022/12/06 07:04:24;;;;;;;41.87;21.53;;;2.20;1.00;;;;;;5058911;28;20706;-62
2022/12/06 07:06:51;;;;;;;48.67;21.63;;;2.20;1.00;;;;;;5053782;28;20223;-62
2022/12/06 07:09:18;;;;;;;54.37;22.13;;;2.20;1.00;;;;;;5048955;28;20183;-62
2022/12/06 07:11:45;;;;;;;61.17;21.03;;;2.20;1.00;;;;;;5049840;28;20213;-63
2022/12/06 07:14:12;;;;;;;56.10;20.97;;;2.20;1.00;;;;;;5059520;28;20305;-63
2022/12/06 07:16:39;;;;;;;46.47;20.53;;;2.20;1.00;;;;;;5048599;28;20214;-62
2022/12/06 07:19:06;;;;;;;57.73;21.87;;;2.30;1.00;;;;;;5048255;28;20196;-63
2022/12/06 07:21:35;;;;;;;57.73;21.80;;;2.30;1.00;;;;;;5059282;28;20682;-64
2022/12/06 07:24:02;;;;;;;46.27;22.07;;;2.30;1.00;;;;;;5047928;28;20202;-63
2022/12/06 07:26:29;;;;;;;64.97;21.93;;;2.30;1.00;;;;;;5055268;28;20522;-63
2022/12/06 07:28:56;;;;;;;67.10;21.93;;;2.30;1.00;;;;;;5059307;28;20270;-62
2022/12/06 07:31:25;;;;;;;83.83;21.60;;;2.30;1.00;;;;;;5049996;28;20832;-63
2022/12/06 07:33:55;;;;;;;57.90;21.37;;;2.30;1.00;;;;;;5058615;28;20786;-62
2022/12/06 07:36:23;;;;;;;79.47;22.10;;;2.30;1.00;;;;;;5061343;28;20199;-63
2022/12/06 07:38:52;;;;;;;77.47;22.57;;;2.40;1.00;;;;;;5058065;28;20199;-62
2022/12/06 07:46:59;;;;;;;59.60;22.07;;;2.40;1.00;;;;;;5047352;28;20199;-63
2022/12/06 07:49:27;;;;;;;78.87;22.97;;;2.50;1.00;;;;;;5057547;28;20256;-62
2022/12/06 07:51:54;;;;;;;58.37;20.70;;;2.40;1.00;;;;;;5058046;28;20217;-63
2022/12/06 07:54:23;;;;;;;68.67;22.03;;;2.40;1.00;;;;;;5056966;28;20233;-62
2022/12/06 07:56:50;;;;;;;66.83;21.73;;;2.50;1.00;;;;;;5050765;28;20276;-63
2022/12/06 07:59:17;;;;;;;67.07;22.20;;;2.50;1.00;;;;;;5058631;28;20723;-63
2022/12/06 08:01:44;;;;;;;55.43;22.73;;;2.50;1.00;;;;;;5048345;28;20911;-62
2022/12/06 08:04:11;;;;;;;56.10;23.50;;;2.50;1.00;;;;;;5048719;28;20305;-63
2022/12/06 08:06:39;;;;;;;82.43;32.53;;;2.50;1.00;;;;;;5039521;28;20223;-63
2022/12/06 08:09:14;;;;;;;105.33;39.47;;;2.60;1.00;;;;;;5047354;28;20216;-66
2022/12/06 08:12:01;;;;;;;85.13;33.27;;;2.60;1.00;;;;;;5045898;28;20701;-65
2022/12/06 08:14:29;;;;;;;87.63;38.07;;;3.20;1.00;;;;;;5024441;28;20716;-63
2022/12/06 08:16:59;;;;;;;78.17;36.10;;;2.60;1.00;;;;;;5056918;28;20203;-64
2022/12/06 08:19:29;;;;;;;89.40;37.50;;;2.70;1.00;;;;;;5040832;28;20214;-64
2022/12/06 08:21:56;;;;;;;93.37;33.50;;;2.80;1.00;;;;;;5058019;28;20188;-63
2022/12/06 08:24:23;;;;;;;61.30;26.60;;;2.80;1.00;;;;;;5057363;28;20538;-64
2022/12/06 08:26:52;;;;;;;50.10;25.57;;;2.90;1.00;;;;;;5037338;28;20222;-63
2022/12/06 08:29:21;;;;;;;46.70;27.20;;;2.90;1.00;;;;;;5053487;28;20209;-64
2022/12/06 08:31:48;;;;;;;46.17;26.97;;;2.90;1.00;;;;;;5056477;28;20558;-65
2022/12/06 08:34:16;;;;;;;42.87;22.97;;;2.90;1.00;;;;;;5056715;28;20543;-65
2022/12/06 08:36:43;;;;;;;68.17;25.30;;;2.90;1.00;;;;;;5041633;28;20817;-63
2022/12/06 08:39:12;;;;;;;46.20;24.00;;;2.90;99.90;;;;;;5048214;28;20290;-64
2022/12/06 08:41:54;;;;;;;57.83;23.80;;;2.90;99.90;;;;;;5048289;28;20437;-64
2022/12/06 08:44:21;;;;;;;43.23;23.10;;;3.00;99.90;;;;;;5047441;28;20309;-63
2022/12/06 08:46:48;;;;;;;46.17;23.63;;;3.00;99.90;;;;;;5054910;28;20269;-63
2022/12/06 08:49:16;;;;;;;44.97;22.70;;;3.10;99.90;;;;;;5057161;28;20203;-64
2022/12/06 08:51:46;;;;;;;46.90;20.97;;;3.10;99.90;;;;;;5053890;28;20226;-63
2022/12/06 08:54:15;;;;;;;42.47;20.97;;;3.00;1.00;;;;;;5056314;28;20264;-65
2022/12/06 08:56:43;;;;;;;37.50;20.60;;;2.90;1.00;;;;;;5056265;28;20624;-65
2022/12/06 08:59:12;;;;;;;37.40;20.50;;;2.90;1.00;;;;;;5059975;28;20219;-64
2022/12/06 09:01:43;;;;;;;33.97;20.50;;;2.90;1.20;;;;;;5057109;28;20276;-64
2022/12/06 09:04:11;;;;;;;42.40;21.93;;;3.10;99.90;;;;;;5046270;28;20246;-66
2022/12/06 09:06:40;;;;;;;35.77;20.13;;;3.10;99.90;;;;;;5038230;28;20596;-65
2022/12/06 09:09:12;;;;;;;32.67;19.60;;;3.00;10.60;;;;;;5052357;28;20278;-64
2022/12/06 09:11:44;;;;;;;32.97;19.37;;;3.00;69.20;;;;;;5043791;28;20249;-65
2022/12/06 09:14:15;;;;;;;38.17;18.83;;;3.00;99.90;;;;;;5057586;28;20195;-63
2022/12/06 09:16:51;;;;;;;33.03;18.63;;;3.10;99.90;;;;;;5059298;28;20445;-63
2022/12/06 09:19:27;;;;;;;36.17;19.97;;;3.10;99.90;;;;;;5046589;28;20206;-66
2022/12/06 09:21:54;;;;;;;36.77;19.67;;;3.10;99.90;;;;;;5055249;28;20204;-67
2022/12/06 09:24:21;;;;;;;41.33;21.47;;;3.20;99.90;;;;;;5035818;28;20215;-67
2022/12/06 09:26:48;;;;;;;68.90;38.87;;;3.30;99.90;;;;;;5058509;28;20285;-67
2022/12/06 09:29:16;;;;;;;81.17;42.10;;;3.40;99.90;;;;;;5032312;28;20201;-66
2022/12/06 09:31:43;;;;;;;50.33;26.53;;;3.40;99.90;;;;;;5055932;28;20213;-67
2022/12/06 09:34:11;;;;;;;41.77;22.13;;;3.40;99.90;;;;;;5028876;28;20576;-67
2022/12/06 09:36:44;;;;;;;38.43;22.47;;;3.40;99.90;;;;;;5056114;28;20652;-65
2022/12/06 09:39:32;;;;;;;35.43;20.23;;;3.40;1.40;;;;;;5042040;28;20653;-66
2022/12/06 09:42:13;;;;;;;41.53;22.00;;;3.50;18.40;;;;;;5055468;28;20210;-69
2022/12/06 09:45:33;;;;;;;51.47;28.97;;;3.60;3.70;;;;;;5039696;28;20237;-66
2022/12/06 09:48:07;;;;;;;39.27;23.67;;;3.60;1.00;;;;;;5058135;28;20218;-66
2022/12/06 09:50:54;;;;;;;39.83;24.63;;;3.70;1.00;;;;;;5038879;28;20313;-67
2022/12/06 09:53:50;;;;;;;39.10;24.73;;;3.70;1.00;;;;;;5058730;28;20677;-66
2022/12/06 09:56:40;;;;;;;38.27;22.27;;;3.80;1.00;;;;;;5056982;28;20628;-66
2022/12/06 09:59:23;;;;;;;33.37;20.17;;;3.90;1.00;;;;;;5053342;28;20298;-67
2022/12/06 10:02:35;;;;;;;33.53;20.40;;;3.90;99.90;;;;;;5058103;28;20199;-68
2022/12/06 10:05:46;;;;;;;30.87;18.67;;;3.90;99.90;;;;;;5011343;28;20249;-66
2022/12/06 10:08:20;;;;;;;44.03;22.40;;;3.90;1.00;;;;;;5028488;28;20209;-67
2022/12/06 10:11:17;;;;;;;31.03;20.27;;;4.00;1.00;;;;;;5057176;28;20841;-67
2022/12/06 10:13:44;;;;;;;38.07;23.07;;;4.00;1.00;;;;;;5056584;28;20187;-67
2022/12/06 10:16:40;;;;;;;32.23;21.40;;;4.00;1.00;;;;;;5047889;28;20897;-67
2022/12/06 10:19:44;;;;;;;37.23;22.30;;;4.10;1.00;;;;;;5050620;28;20198;-67
2022/12/06 10:22:29;;;;;;;35.47;20.43;;;4.10;1.00;;;;;;5057810;28;20214;-67
2022/12/06 10:25:00;;;;;;;34.23;20.53;;;4.10;1.00;;;;;;5059204;28;20204;-66
2022/12/06 10:27:57;;;;;;;30.87;18.43;;;4.20;1.00;;;;;;5039948;28;20257;-67
2022/12/06 10:30:24;;;;;;;27.43;17.23;;;4.30;1.00;;;;;;5028894;28;20222;-67
2022/12/06 10:33:04;;;;;;;23.93;15.67;;;4.30;99.90;;;;;;5053141;28;20199;-67
2022/12/06 10:35:55;;;;;;;22.33;15.27;;;4.40;99.90;;;;;;5056878;28;20195;-66
2022/12/06 10:38:59;;;;;;;24.90;13.93;;;4.50;99.90;;;;;;5040307;28;20687;-67
2022/12/06 10:42:21;;;;;;;20.83;12.53;;;4.50;99.90;;;;;;5054316;28;20714;-66
2022/12/06 10:45:01;;;;;;;19.80;12.03;;;4.50;58.10;;;;;;5000604;28;20215;-67
2022/12/06 10:47:37;;;;;;;15.93;11.63;;;4.50;1.00;;;;;;5041101;28;20352;-67
2022/12/06 10:50:20;;;;;;;17.93;12.00;;;4.50;1.00;;;;;;5032777;28;20191;-67
2022/12/06 10:52:51;;;;;;;27.60;15.30;;;4.60;1.00;;;;;;5032983;28;20716;-67
2022/12/06 10:55:48;;;;;;;19.73;13.47;;;4.60;1.00;;;;;;5056987;28;20904;-66
2022/12/06 10:58:21;;;;;;;15.97;12.13;;;4.60;1.00;;;;;;5058031;28;20210;-67
2022/12/06 11:00:57;;;;;;;17.07;12.20;;;4.70;1.00;;;;;;5042013;28;20187;-66
2022/12/06 11:03:42;;;;;;;17.07;11.13;;;4.70;1.00;;;;;;5058514;28;20234;-68
2022/12/06 11:06:27;;;;;;;15.60;11.63;;;4.80;1.00;;;;;;5058803;28;20302;-67
2022/12/06 11:09:00;;;;;;;14.60;11.27;;;4.80;99.90;;;;;;5058005;28;20275;-67
2022/12/06 11:11:34;;;;;;;16.90;12.00;;;4.90;99.90;;;;;;5042395;28;20248;-67
2022/12/06 11:14:35;;;;;;;18.00;11.50;;;4.90;99.90;;;;;;5060220;28;20229;-67
2022/12/06 11:17:10;;;;;;;16.60;12.10;;;4.90;98.70;;;;;;5049945;28;20274;-67
2022/12/06 11:19:43;;;;;;;16.27;12.27;;;5.00;99.90;;;;;;5057624;28;20303;-68
2022/12/06 11:22:12;;;;;;;19.60;13.50;;;5.10;1.00;;;;;;5059827;28;20219;-67
2022/12/06 11:24:48;;;;;;;17.17;11.97;;;5.20;1.00;;;;;;5060447;28;20235;-67
2022/12/06 11:27:32;;;;;;;19.13;13.23;;;5.20;1.00;;;;;;5048844;28;20277;-67
2022/12/06 11:30:00;;;;;;;19.47;12.50;;;5.30;1.00;;;;;;5041212;28;20219;-67
2022/12/06 11:32:28;;;;;;;20.17;13.10;;;5.30;1.00;;;;;;5059551;28;20200;-68
2022/12/06 11:34:58;;;;;;;18.13;12.30;;;5.30;1.00;;;;;;5060293;28;20203;-67
2022/12/06 11:37:30;;;;;;;21.07;14.70;;;5.40;1.00;;;;;;5055858;28;20203;-67
2022/12/06 11:40:29;;;;;;;15.47;12.60;;;5.40;1.00;;;;;;5046807;28;20191;-67
2022/12/06 11:43:01;;;;;;;15.83;11.83;;;5.50;1.00;;;;;;5041227;28;20214;-67
2022/12/06 11:45:33;;;;;;;14.93;10.90;;;5.50;1.00;;;;;;5055652;28;20250;-66
2022/12/06 11:48:12;;;;;;;16.87;11.23;;;5.50;99.90;;;;;;5041256;28;20199;-67
2022/12/06 11:50:41;;;;;;;22.23;12.53;;;5.50;99.90;;;;;;5059736;28;20190;-66
2022/12/06 11:53:27;;;;;;;16.23;11.20;;;5.60;99.90;;;;;;5048610;28;20206;-67
2022/12/06 11:55:59;;;;;;;16.57;12.47;;;5.60;99.90;;;;;;5058873;28;20196;-68
2022/12/06 11:58:36;;;;;;;16.57;11.53;;;5.60;99.90;;;;;;5054729;28;20577;-66
2022/12/06 12:01:15;;;;;;;23.10;14.40;;;5.40;99.90;;;;;;5056575;28;20611;-66
2022/12/06 12:03:43;;;;;;;23.37;14.37;;;5.40;99.90;;;;;;5040676;28;20752;-67
2022/12/06 12:06:26;;;;;;;24.47;17.20;;;5.50;99.90;;;;;;5040176;28;20631;-67
2022/12/06 12:09:01;;;;;;;17.17;12.33;;;5.60;99.90;;;;;;5038752;28;20195;-67
2022/12/06 12:11:31;;;;;;;18.30;13.10;;;5.60;99.90;;;;;;5037327;28;20197;-67
2022/12/06 12:14:01;;;;;;;15.07;11.30;;;5.60;99.90;;;;;;5037284;28;20204;-66
2022/12/06 12:16:36;;;;;;;13.50;10.37;;;5.60;99.90;;;;;;5038279;28;20219;-66
2022/12/06 12:19:38;;;;;;;15.23;11.30;;;5.60;99.90;;;;;;5025833;28;20210;-66
2022/12/06 12:22:27;;;;;;;17.23;10.83;;;5.70;99.90;;;;;;5052438;28;20191;-66
2022/12/06 12:25:00;;;;;;;14.73;11.80;;;5.70;99.90;;;;;;5037506;28;20714;-66
2022/12/06 12:27:53;;;;;;;20.37;12.70;;;5.70;99.90;;;;;;5041808;28;20195;-65
2022/12/06 12:30:23;;;;;;;26.43;18.87;;;5.70;99.90;;;;;;5054254;28;20199;-66
2022/12/06 12:33:04;;;;;;;15.30;9.93;;;5.70;99.90;;;;;;5037783;28;20184;-66
2022/12/06 12:36:03;;;;;;;9.60;8.07;;;5.60;99.90;;;;;;5051495;28;20827;-66
2022/12/06 12:38:48;;;;;;;12.83;8.10;;;5.50;99.90;;;;;;5024269;28;20223;-67
2022/12/06 12:41:27;;;;;;;9.13;7.43;;;5.40;99.90;;;;;;5037917;28;20697;-66
2022/12/06 12:44:04;;;;;;;11.07;7.63;;;5.40;99.90;;;;;;5037857;28;20719;-66
2022/12/06 12:46:55;;;;;;;11.17;7.63;;;5.30;99.90;;;;;;5039620;28;20202;-66
2022/12/06 12:49:22;;;;;;;12.23;9.00;;;5.30;99.90;;;;;;5043647;28;20227;-67
2022/12/06 12:52:43;;;;;;;10.60;8.87;;;5.30;99.90;;;;;;5020453;28;20240;-66
2022/12/06 12:55:20;;;;;;;14.87;9.70;;;5.40;99.90;;;;;;5040639;28;20695;-66
2022/12/06 12:57:58;;;;;;;15.63;11.13;;;5.40;99.90;;;;;;5036001;28;20733;-66
2022/12/06 13:00:36;;;;;;;17.63;11.73;;;5.50;99.90;;;;;;5036965;28;20199;-66
2022/12/06 13:03:08;;;;;;;27.43;18.63;;;5.60;99.90;;;;;;5038561;28;20188;-66
2022/12/06 13:05:56;;;;;;;23.60;13.37;;;5.70;99.90;;;;;;5040922;28;20222;-66
2022/12/06 13:08:32;;;;;;;17.93;12.77;;;5.70;99.90;;;;;;5056844;28;20757;-66
2022/12/06 13:11:02;;;;;;;15.20;11.27;;;5.70;99.90;;;;;;5038997;28;20221;-66
2022/12/06 13:13:59;;;;;;;16.43;11.93;;;5.60;99.90;;;;;;5053149;28;20660;-66
2022/12/06 13:16:34;;;;;;;14.03;10.60;;;5.50;99.90;;;;;;5028085;28;20244;-67
2022/12/06 13:19:01;;;;;;;16.70;10.43;;;5.50;99.90;;;;;;5046183;28;20664;-66
2022/12/06 13:21:39;;;;;;;15.40;11.50;;;5.40;99.90;;;;;;5057868;28;20198;-66
2022/12/06 13:24:09;;;;;;;15.07;11.93;;;5.40;99.90;;;;;;5056243;28;20190;-66
2022/12/06 13:26:42;;;;;;;14.63;10.03;;;5.40;99.90;;;;;;5057604;28;20576;-66
2022/12/06 13:29:36;;;;;;;14.17;11.27;;;5.50;99.90;;;;;;5060349;28;20659;-66
2022/12/06 13:32:31;;;;;;;15.23;10.50;;;5.50;99.90;;;;;;5049102;28;20230;-66
2022/12/06 13:35:06;;;;;;;17.33;11.73;;;5.50;99.90;;;;;;5057654;28;20646;-66
2022/12/06 13:37:43;;;;;;;13.90;10.77;;;5.60;99.90;;;;;;5041402;28;20310;-66
2022/12/06 13:40:32;;;;;;;20.27;14.70;;;5.60;99.90;;;;;;5038121;28;20208;-66